Time;durP1;ratioP1;P1;durP2;ratioP2;P2;SDS_P1;SDS_P2;PMS_P1;PMS_P2;Temp;Humidity;BMP_temperature;BMP_pressure;BME280_temperature;BME280_humidity;BME280_pressure;Samples;Min_cycle;Max_cycle;Signal;HPM_P1;HPM_P2
2022/09/21 00:01:05;;;;;;;8.13;3.65;;;;;;;11.51;69.34;101495.00;4130819;28;20046;-64
2022/09/21 00:03:08;;;;;;;8.23;3.45;;;;;;;11.48;69.29;101494.03;4130518;28;20053;-64
2022/09/21 00:05:11;;;;;;;10.32;3.33;;;;;;;11.43;68.89;101493.00;4130036;28;20381;-64
2022/09/21 00:07:14;;;;;;;10.55;4.40;;;;;;;11.34;69.64;101488.44;4131648;28;20310;-65
2022/09/21 00:09:18;;;;;;;15.85;6.85;;;;;;;11.32;69.82;101496.22;4129970;28;20042;-65
2022/09/21 00:11:23;;;;;;;14.75;8.98;;;;;;;11.33;69.50;101497.97;4130376;28;20061;-65
2022/09/21 00:13:27;;;;;;;16.02;9.45;;;;;;;11.32;69.66;101497.94;4129780;28;20030;-65
2022/09/21 00:15:31;;;;;;;18.50;10.60;;;;;;;11.32;69.46;101495.34;4129903;28;20088;-64
2022/09/21 00:17:34;;;;;;;11.97;5.70;;;;;;;11.32;69.36;101503.16;4130192;28;20478;-65
2022/09/21 00:19:37;;;;;;;10.10;4.30;;;;;;;11.25;70.16;101499.47;4131223;28;20038;-65
2022/09/21 00:21:41;;;;;;;11.43;5.00;;;;;;;11.23;70.09;101500.25;4129167;28;20038;-65
2022/09/21 00:23:44;;;;;;;6.82;4.45;;;;;;;11.24;69.79;101496.84;4130846;28;20034;-65
2022/09/21 00:25:48;;;;;;;6.97;3.53;;;;;;;11.23;69.74;101502.88;4125574;28;20089;-65
2022/09/21 00:27:51;;;;;;;6.57;3.33;;;;;;;11.17;69.89;101506.22;4123540;28;20381;-65
2022/09/21 00:29:54;;;;;;;7.38;3.80;;;;;;;11.16;69.87;101500.09;4130260;28;20042;-64
2022/09/21 00:31:57;;;;;;;11.02;4.32;;;;;;;11.16;69.67;101507.91;4130530;28;20046;-65
2022/09/21 00:34:02;;;;;;;7.55;3.95;;;;;;;11.12;70.31;101503.44;4130951;28;20465;-65
2022/09/21 00:36:06;;;;;;;;;;;;;;;10.96;70.42;101511.66;4130439;28;20561;-65
2022/09/21 00:38:08;;;;;;;7.47;3.53;;;;;;;10.98;70.12;101509.97;4131081;28;19980;-65
2022/09/21 00:40:12;;;;;;;8.60;3.47;;;;;;;11.01;70.02;101507.47;4130096;28;20034;-65
2022/09/21 00:42:18;;;;;;;7.43;3.55;;;;;;;11.02;70.44;101514.44;4129716;28;20042;-65
2022/09/21 00:44:28;;;;;;;7.55;4.00;;;;;;;11.04;70.01;101510.16;4130835;28;20444;-65
2022/09/21 00:46:31;;;;;;;11.88;3.85;;;;;;;10.99;70.11;101514.34;4131293;28;20404;-65
2022/09/21 00:48:35;;;;;;;9.07;3.70;;;;;;;10.96;70.33;101511.66;4133964;28;20464;-65
2022/09/21 00:50:41;;;;;;;7.83;3.50;;;;;;;10.95;70.16;101512.47;4133306;28;20038;-65
2022/09/21 00:52:47;;;;;;;7.63;3.60;;;;;;;10.92;70.67;101499.38;4133586;28;20332;-65
2022/09/21 00:54:52;;;;;;;6.03;3.50;;;;;;;10.87;70.40;101508.78;4132517;28;20042;-65
2022/09/21 00:56:58;;;;;;;6.68;3.28;;;;;;;10.83;70.55;101502.59;4134438;28;20042;-65
2022/09/21 00:59:03;;;;;;;8.63;3.38;;;;;;;10.80;70.72;101505.97;4134084;28;20050;-65
2022/09/21 01:01:07;;;;;;;6.95;3.45;;;;;;;10.78;70.79;101504.19;4131299;28;20065;-64
2022/09/21 01:03:12;;;;;;;7.18;3.88;;;;;;;10.75;71.22;101517.09;4133891;28;20053;-64
2022/09/21 01:05:15;;;;;;;10.30;4.43;;;;;;;10.72;70.82;101512.69;4132657;28;20042;-64
2022/09/21 01:07:22;;;;;;;8.05;3.83;;;;;;;10.75;70.59;101507.56;4132860;28;20043;-64
2022/09/21 01:09:26;;;;;;;10.65;4.47;;;;;;;10.77;71.33;101515.41;4131419;28;20132;-64
2022/09/21 01:11:35;;;;;;;9.18;4.13;;;;;;;10.79;70.52;101513.75;4132682;28;20473;-65
2022/09/21 01:13:47;;;;;;;9.43;4.47;;;;;;;10.80;70.82;101518.97;4132258;28;20044;-65
2022/09/21 01:16:02;;;;;;;7.85;3.35;;;;;;;10.80;70.51;101513.78;4116731;28;20082;-65
2022/09/21 01:18:16;;;;;;;6.75;3.28;;;;;;;10.81;70.38;101514.69;4131862;28;20043;-65
2022/09/21 01:20:38;;;;;;;7.25;3.50;;;;;;;10.75;70.56;101512.78;4128816;28;20049;-65
2022/09/21 01:22:56;;;;;;;8.38;3.72;;;;;;;10.72;70.76;101515.28;4132606;28;20043;-65
2022/09/21 01:25:09;;;;;;;7.45;3.75;;;;;;;10.66;70.92;101512.50;4132082;28;20053;-64
2022/09/21 01:27:48;;;;;;;7.88;3.72;;;;;;;10.68;71.37;101513.41;4133758;28;20038;-65
2022/09/21 01:29:59;;;;;;;7.97;3.70;;;;;;;10.68;71.37;101516.03;4131753;28;20042;-65
2022/09/21 01:32:26;;;;;;;8.90;3.65;;;;;;;10.67;70.97;101509.03;4133491;28;20588;-64
2022/09/21 01:34:35;;;;;;;9.27;4.05;;;;;;;10.68;71.40;101516.03;4132930;28;20385;-65
2022/09/21 01:36:42;;;;;;;9.32;4.97;;;;;;;10.66;71.96;101520.31;4133048;28;20038;-64
2022/09/21 01:38:50;;;;;;;7.05;4.00;;;;;;;10.61;71.84;101509.75;4133589;28;20038;-65
2022/09/21 01:40:57;;;;;;;7.00;3.75;;;;;;;10.64;71.43;101519.34;4115917;28;20051;-65
2022/09/21 01:43:02;;;;;;;9.88;3.75;;;;;;;10.67;71.45;101516.84;4133575;28;20042;-64
2022/09/21 01:45:09;;;;;;;8.55;4.20;;;;;;;10.69;70.99;101516.91;4133085;28;20038;-64
2022/09/21 01:47:13;;;;;;;7.47;3.72;;;;;;;10.64;71.64;101515.06;4132401;28;20157;-64
2022/09/21 01:49:21;;;;;;;12.02;4.45;;;;;;;10.63;70.80;101512.38;4132107;28;20042;-64
2022/09/21 01:51:27;;;;;;;10.32;4.53;;;;;;;10.62;70.86;101523.66;4133316;28;20411;-64
2022/09/21 01:53:33;;;;;;;8.32;4.28;;;;;;;10.60;71.21;101521.00;4131793;28;20053;-64
2022/09/21 01:55:41;;;;;;;10.38;3.38;;;;;;;10.60;71.29;101517.50;4132491;28;20066;-64
2022/09/21 01:57:51;;;;;;;8.98;3.95;;;;;;;10.60;70.90;101520.09;4131031;28;20408;-64
2022/09/21 01:59:57;;;;;;;9.13;3.67;;;;;;;10.59;70.58;101518.34;4132659;28;20038;-64
2022/09/21 02:02:09;;;;;;;6.57;3.40;;;;;;;10.60;70.95;101517.50;4133537;28;20461;-65
2022/09/21 02:04:13;;;;;;;10.27;4.18;;;;;;;10.57;71.17;101514.81;4126612;28;20046;-64
2022/09/21 02:06:18;;;;;;;11.45;4.68;;;;;;;10.54;71.38;101523.41;4117883;28;20069;-64
2022/09/21 02:08:20;;;;;;;;;;;;;;;10.38;72.26;101515.94;4133565;28;20460;-64
2022/09/21 02:10:28;;;;;;;5.80;3.40;;;;;;;10.37;72.32;101515.06;4133241;28;19921;-64
2022/09/21 02:12:32;;;;;;;6.10;3.55;;;;;;;10.34;71.96;101524.47;4131956;28;20100;-65
2022/09/21 02:14:37;;;;;;;5.97;3.63;;;;;;;10.34;72.68;101525.38;4133186;28;20050;-65
2022/09/21 02:16:44;;;;;;;10.57;3.85;;;;;;;10.35;72.53;101518.44;4131012;28;20050;-65
2022/09/21 02:18:58;;;;;;;6.97;3.40;;;;;;;10.34;72.51;101519.25;4132941;28;20050;-65
2022/09/21 02:21:07;;;;;;;6.38;3.35;;;;;;;10.27;72.12;101515.56;4115889;28;20505;-64
2022/09/21 02:23:18;;;;;;;6.57;3.13;;;;;;;10.27;72.71;101519.03;4115653;28;20051;-64
2022/09/21 02:25:32;;;;;;;7.65;4.03;;;;;;;10.30;72.47;101518.25;4123674;28;20604;-65
2022/09/21 02:27:44;;;;;;;7.90;3.85;;;;;;;10.36;72.26;101517.63;4132122;28;20042;-65
2022/09/21 02:29:51;;;;;;;9.88;4.50;;;;;;;10.34;72.37;101514.97;4132347;28;20385;-65
2022/09/21 02:32:04;;;;;;;6.82;3.72;;;;;;;10.35;71.84;101516.72;4116944;28;20043;-65
2022/09/21 02:34:16;;;;;;;10.38;3.30;;;;;;;10.37;72.60;101506.41;4123416;28;20046;-65
2022/09/21 02:36:27;;;;;;;8.23;3.50;;;;;;;10.37;71.72;101509.88;4131611;28;20042;-65
2022/09/21 02:38:36;;;;;;;6.63;3.95;;;;;;;10.36;71.89;101510.69;4131382;28;20071;-65
2022/09/21 02:40:47;;;;;;;11.98;4.00;;;;;;;10.37;72.18;101509.88;4131736;28;20038;-65
2022/09/21 02:42:56;;;;;;;7.50;3.75;;;;;;;10.38;71.84;101514.25;4131526;28;20089;-65
2022/09/21 02:45:05;;;;;;;6.18;3.53;;;;;;;10.39;72.33;101515.13;4131430;28;20109;-65
2022/09/21 02:47:14;;;;;;;8.18;4.30;;;;;;;10.36;71.84;101517.63;4132417;28;20046;-65
2022/09/21 02:49:21;;;;;;;9.10;5.10;;;;;;;10.36;71.65;101518.50;4131431;28;20042;-65
2022/09/21 02:51:29;;;;;;;10.30;4.50;;;;;;;10.31;72.08;101515.72;4099424;28;20075;-65
2022/09/21 02:53:36;;;;;;;9.02;3.97;;;;;;;10.29;72.47;101516.50;4131642;28;20034;-64
2022/09/21 02:55:39;;;;;;;8.10;3.70;;;;;;;10.28;72.13;101519.94;4124479;28;20532;-65
2022/09/21 02:57:43;;;;;;;8.65;4.45;;;;;;;10.25;72.27;101515.53;4132208;28;20050;-65
2022/09/21 02:59:46;;;;;;;7.30;3.90;;;;;;;10.26;72.04;101517.25;4132235;28;20034;-64
2022/09/21 03:01:50;;;;;;;7.28;4.20;;;;;;;10.29;72.06;101513.88;4132185;28;20038;-64
2022/09/21 03:03:52;;;;;;;6.68;4.10;;;;;;;10.28;72.76;101509.56;4121201;28;20077;-64
2022/09/21 03:05:57;;;;;;;6.40;4.57;;;;;;;10.29;71.93;101516.50;4130364;28;20030;-65
2022/09/21 03:08:00;;;;;;;;;;;;;;;10.15;72.85;101508.25;4132724;28;20411;-64
2022/09/21 03:10:05;;;;;;;6.28;4.10;;;;;;;10.16;72.73;101504.81;4131905;28;19925;-64
2022/09/21 03:12:08;;;;;;;10.70;4.20;;;;;;;10.15;72.56;101505.66;4115183;28;20047;-64
2022/09/21 03:14:11;;;;;;;6.40;3.60;;;;;;;10.21;72.14;101513.66;4131996;28;20104;-65
2022/09/21 03:16:14;;;;;;;8.00;4.60;;;;;;;10.17;72.87;101510.91;4129141;28;20039;-64
2022/09/21 03:18:17;;;;;;;9.05;6.10;;;;;;;10.20;73.18;101508.41;4132105;28;20043;-65
2022/09/21 03:20:20;;;;;;;10.65;7.03;;;;;;;10.25;73.02;101506.81;4130887;28;20400;-64
2022/09/21 03:22:24;;;;;;;14.50;5.43;;;;;;;10.30;73.17;101508.75;4131003;28;20499;-64
2022/09/21 03:26:47;;;;;;;10.55;5.90;;;;;;;10.30;72.29;101515.66;4130323;28;20065;-65
2022/09/21 03:28:51;;;;;;;9.75;6.13;;;;;;;10.32;72.80;101511.38;4124219;28;20405;-65
2022/09/21 03:30:54;;;;;;;10.40;6.72;;;;;;;10.34;72.20;101522.78;4132055;28;20073;-65
2022/09/21 03:32:57;;;;;;;10.88;5.38;;;;;;;10.33;72.61;101520.97;4130804;28;20042;-65
2022/09/21 03:35:00;;;;;;;13.95;6.95;;;;;;;10.30;73.10;101528.66;4130853;28;20065;-64
2022/09/21 03:37:04;;;;;;;12.50;6.82;;;;;;;10.33;72.65;101523.56;4129203;28;20034;-65
2022/09/21 03:39:08;;;;;;;11.05;5.90;;;;;;;10.32;72.74;101519.19;4133689;28;20377;-65
2022/09/21 03:41:13;;;;;;;9.95;5.65;;;;;;;10.26;73.10;101524.19;4139745;28;20407;-65
2022/09/21 03:43:17;;;;;;;8.25;5.32;;;;;;;10.24;73.55;101521.53;4130192;28;20088;-64
2022/09/21 03:45:21;;;;;;;10.48;7.32;;;;;;;10.20;72.90;101522.28;4113311;28;20051;-64
2022/09/21 03:47:24;;;;;;;8.82;5.50;;;;;;;10.18;73.49;101520.44;4130865;28;20381;-64
2022/09/21 03:49:26;;;;;;;8.63;6.10;;;;;;;10.16;73.08;101527.31;4131187;28;20035;-65
2022/09/21 03:51:30;;;;;;;10.38;6.90;;;;;;;10.14;73.01;101530.75;4131713;28;20045;-65
2022/09/21 03:53:33;;;;;;;9.45;6.85;;;;;;;10.18;72.83;101525.66;4130764;28;20046;-64
2022/09/21 03:55:37;;;;;;;11.30;6.53;;;;;;;10.19;72.52;101524.81;4109976;28;20113;-65
2022/09/21 03:57:40;;;;;;;11.80;6.63;;;;;;;10.14;73.10;101527.28;4131299;28;20047;-65
2022/09/21 03:59:43;;;;;;;11.85;7.13;;;;;;;10.13;72.43;101528.09;4130128;28;20038;-65
2022/09/21 04:01:46;;;;;;;10.60;5.95;;;;;;;10.11;72.32;101528.03;4129897;28;20042;-65
2022/09/21 04:03:48;;;;;;;7.85;5.40;;;;;;;10.09;72.92;101529.72;4131307;28;20052;-65
2022/09/21 04:05:51;;;;;;;10.70;5.40;;;;;;;10.08;72.99;101527.94;4129025;28;20042;-65
2022/09/21 04:07:55;;;;;;;8.77;5.35;;;;;;;10.11;72.82;101527.19;4131007;28;20491;-65
2022/09/21 04:09:58;;;;;;;9.65;5.97;;;;;;;10.08;72.68;101532.28;4131385;28;20038;-65
2022/09/21 04:12:02;;;;;;;7.82;5.32;;;;;;;10.04;73.55;101535.59;4129773;28;20042;-64
2022/09/21 04:14:05;;;;;;;9.70;5.35;;;;;;;9.99;74.01;101532.84;4131301;28;20046;-65
2022/09/21 04:16:09;;;;;;;10.45;5.95;;;;;;;10.03;73.72;101534.72;4128472;28;20039;-65
2022/09/21 04:18:12;;;;;;;13.63;6.97;;;;;;;10.03;72.75;101539.91;4129476;28;20139;-64
2022/09/21 04:20:15;;;;;;;8.93;5.72;;;;;;;9.98;73.04;101536.25;4127519;28;20046;-65
2022/09/21 04:23:02;;;;;;;9.50;6.05;;;;;;;9.87;72.91;101538.50;4132755;28;20030;-64
2022/09/21 04:25:07;;;;;;;11.98;6.28;;;;;;;9.84;73.44;101538.41;4117848;28;20050;-65
2022/09/21 04:27:11;;;;;;;8.68;6.45;;;;;;;9.85;73.85;101542.75;4134754;28;20042;-64
2022/09/21 04:29:15;;;;;;;9.30;6.00;;;;;;;9.82;73.65;101540.03;4133533;28;20061;-64
2022/09/21 04:31:18;;;;;;;10.48;6.75;;;;;;;9.85;73.29;101541.88;4132947;28;20045;-64
2022/09/21 04:33:22;;;;;;;10.30;6.75;;;;;;;9.83;73.66;101540.91;4132095;28;20038;-64
2022/09/21 04:35:25;;;;;;;14.20;8.02;;;;;;;9.81;73.40;101543.47;4134779;28;20499;-64
2022/09/21 04:37:28;;;;;;;11.18;6.63;;;;;;;9.84;73.98;101553.09;4133550;28;20035;-64
2022/09/21 04:39:30;;;;;;;9.80;6.63;;;;;;;9.89;73.13;101546.34;4134665;28;20042;-64
2022/09/21 04:41:33;;;;;;;11.02;6.90;;;;;;;9.87;72.87;101548.00;4132400;28;20038;-65
2022/09/21 04:43:38;;;;;;;8.50;6.43;;;;;;;9.86;73.22;101548.84;4133004;28;20046;-64
2022/09/21 04:45:42;;;;;;;9.90;6.78;;;;;;;9.79;73.24;101546.00;4134658;28;20046;-64
2022/09/21 04:47:45;;;;;;;13.45;7.28;;;;;;;9.79;73.35;101548.59;4134639;28;20042;-64
2022/09/21 04:49:48;;;;;;;16.77;8.77;;;;;;;9.77;73.68;101557.19;4133632;28;20042;-64
2022/09/21 04:51:51;;;;;;;9.48;7.18;;;;;;;9.79;73.21;101559.00;4125381;28;20073;-64
2022/09/21 04:53:53;;;;;;;10.77;7.72;;;;;;;9.78;73.93;101559.84;4132750;28;20074;-64
2022/09/21 04:55:56;;;;;;;14.00;9.18;;;;;;;9.81;73.33;101563.38;4134487;28;20089;-64
2022/09/21 04:57:59;;;;;;;12.80;8.45;;;;;;;9.72;73.64;101564.81;4133222;28;20428;-64
2022/09/21 05:00:04;;;;;;;16.90;9.10;;;;;;;9.74;74.17;101562.28;4126624;28;20055;-64
2022/09/21 05:02:07;;;;;;;13.90;8.90;;;;;;;9.72;73.46;101569.13;4134154;28;20046;-64
2022/09/21 05:04:10;;;;;;;10.70;7.82;;;;;;;9.70;73.63;101568.19;4133947;28;20062;-65
2022/09/21 05:06:13;;;;;;;13.80;8.70;;;;;;;9.70;73.41;101565.59;4133143;28;20042;-65
2022/09/21 05:10:01;;;;;;;11.95;8.75;;;;;;;9.70;73.57;101568.19;4133119;28;20046;-65
2022/09/21 05:10:39;;;;;;;10.93;7.30;;;;;;;9.63;74.12;101577.47;4132964;28;20042;-64
2022/09/21 05:12:42;;;;;;;15.10;8.77;;;;;;;9.59;73.84;101573.88;4134053;28;20034;-64
2022/09/21 05:14:45;;;;;;;16.35;8.23;;;;;;;9.62;73.86;101573.09;4132616;28;20042;-65
2022/09/21 05:16:49;;;;;;;12.55;7.60;;;;;;;9.65;74.15;101580.13;4132958;28;20085;-65
2022/09/21 05:18:54;;;;;;;11.20;7.22;;;;;;;9.65;73.55;101577.53;4131951;28;20050;-64
2022/09/21 05:20:58;;;;;;;15.75;7.28;;;;;;;9.63;73.51;101576.59;4133340;28;20038;-64
2022/09/21 05:23:02;;;;;;;11.23;7.63;;;;;;;9.63;73.49;101580.06;4133986;28;20085;-64
2022/09/21 05:25:06;;;;;;;10.03;6.37;;;;;;;9.52;74.01;101571.00;4133715;28;20305;-65
2022/09/21 05:27:09;;;;;;;11.60;7.40;;;;;;;9.50;73.99;101575.25;4133164;28;20288;-64
2022/09/21 05:29:12;;;;;;;10.60;6.35;;;;;;;9.54;74.70;101582.34;4127603;28;20061;-64
2022/09/21 05:31:30;;;;;;;10.85;7.32;;;;;;;9.56;73.56;101578.97;4116552;28;20113;-64
2022/09/21 05:33:35;;;;;;;11.45;7.30;;;;;;;9.58;73.56;101579.03;4132055;28;20500;-64
2022/09/21 05:35:45;;;;;;;12.23;7.28;;;;;;;9.60;73.98;101586.03;4133924;28;20041;-64
2022/09/21 05:37:53;;;;;;;9.85;7.20;;;;;;;9.66;73.61;101582.75;4132908;28;20042;-64
2022/09/21 05:39:57;;;;;;;14.38;8.35;;;;;;;9.66;73.08;101579.28;4126594;28;20488;-64
2022/09/21 05:42:00;;;;;;;12.20;7.07;;;;;;;9.66;73.12;101580.16;4133865;28;20042;-64
2022/09/21 05:44:03;;;;;;;9.32;6.50;;;;;;;9.67;73.66;101586.28;4132082;28;20058;-65
2022/09/21 05:46:16;;;;;;;9.98;6.53;;;;;;;9.68;73.63;101591.50;4133636;28;20047;-64
2022/09/21 05:48:21;;;;;;;13.13;7.57;;;;;;;9.64;73.99;101591.31;4131938;28;20085;-64
2022/09/21 05:50:37;;;;;;;11.00;6.95;;;;;;;9.61;74.00;101594.72;4133495;28;20496;-64
2022/09/21 05:52:48;;;;;;;13.48;7.68;;;;;;;9.60;74.58;101598.13;4133559;28;20073;-64
2022/09/21 05:55:00;;;;;;;11.07;6.93;;;;;;;9.61;73.93;101602.50;4133335;28;20512;-65
2022/09/21 05:57:11;;;;;;;10.32;7.28;;;;;;;9.66;74.22;101605.25;4132329;28;20507;-64
2022/09/21 05:59:41;;;;;;;10.93;7.78;;;;;;;9.69;74.30;101601.03;4131833;28;20038;-64
2022/09/21 06:01:56;;;;;;;10.43;6.80;;;;;;;9.69;73.93;101600.19;4132181;28;20475;-64
2022/09/21 06:04:02;;;;;;;13.23;7.45;;;;;;;9.70;74.89;101602.81;4133068;28;20096;-64
2022/09/21 06:06:08;;;;;;;11.38;7.45;;;;;;;9.78;74.38;101603.09;4133412;28;20049;-64
2022/09/21 06:08:11;;;;;;;13.82;8.70;;;;;;;9.79;74.16;101608.34;4131967;28;20084;-64
2022/09/21 06:10:14;;;;;;;10.20;6.82;;;;;;;9.83;74.93;101618.84;4132128;28;20054;-64
2022/09/21 06:12:17;;;;;;;9.60;6.72;;;;;;;9.84;74.50;101610.22;4132089;28;20053;-64
2022/09/21 06:14:24;;;;;;;9.80;7.20;;;;;;;9.91;74.92;101618.28;4132850;28;20081;-64
2022/09/21 06:16:27;;;;;;;11.20;8.50;;;;;;;9.98;74.77;101619.41;4133328;28;20046;-64
2022/09/21 06:18:30;;;;;;;18.52;9.95;;;;;;;10.09;74.12;101612.88;4132013;28;20049;-64
2022/09/21 06:20:32;;;;;;;16.17;9.02;;;;;;;10.11;73.79;101618.13;4133086;28;20469;-64
2022/09/21 06:22:36;;;;;;;14.98;8.95;;;;;;;10.16;73.80;101618.28;4131977;28;20042;-64
2022/09/21 06:24:39;;;;;;;16.20;8.90;;;;;;;10.20;73.60;101617.56;4131469;28;20046;-64
2022/09/21 06:26:42;;;;;;;15.82;8.02;;;;;;;10.27;73.29;101616.94;4133099;28;20069;-64
2022/09/21 06:28:45;;;;;;;17.38;9.00;;;;;;;10.28;72.63;101621.31;4131085;28;20456;-64
2022/09/21 06:30:51;;;;;;;17.10;7.82;;;;;;;10.25;73.08;101618.56;4131557;28;20042;-64
2022/09/21 06:32:54;;;;;;;12.80;8.55;;;;;;;10.26;72.44;101617.75;4116836;28;20415;-64
2022/09/21 06:34:56;;;;;;;15.35;8.75;;;;;;;10.29;72.99;101623.06;4131393;28;20141;-64
2022/09/21 06:36:59;;;;;;;12.15;7.45;;;;;;;10.30;73.22;101622.22;4116855;28;20042;-65
2022/09/21 06:39:03;;;;;;;14.23;7.85;;;;;;;10.34;72.34;101623.25;4128472;28;20032;-67
2022/09/21 06:41:06;;;;;;;13.82;7.90;;;;;;;10.46;72.08;101618.47;4132748;28;20046;-65
2022/09/21 06:43:09;;;;;;;19.13;9.63;;;;;;;10.52;71.47;101625.59;4132659;28;20053;-65
2022/09/21 06:45:12;;;;;;;13.80;10.00;;;;;;;10.57;71.03;101626.59;4130946;28;20092;-65
2022/09/21 06:47:15;;;;;;;15.55;8.05;;;;;;;10.56;71.38;101622.25;4132761;28;20042;-64
2022/09/21 06:49:17;;;;;;;17.38;8.10;;;;;;;10.47;71.21;101628.03;4131899;28;20038;-65
2022/09/21 06:51:20;;;;;;;16.65;7.82;;;;;;;10.50;71.67;101622.03;4132588;28;20034;-64
2022/09/21 06:53:23;;;;;;;16.52;7.80;;;;;;;10.59;71.06;101628.44;4130982;28;20046;-64
2022/09/21 06:55:28;;;;;;;10.43;6.95;;;;;;;10.61;70.59;101625.88;4131470;28;20077;-64
2022/09/21 06:57:31;;;;;;;12.10;7.20;;;;;;;10.70;70.76;101625.31;4131678;28;20049;-64
2022/09/21 06:59:34;;;;;;;12.23;7.45;;;;;;;10.64;70.70;101633.78;4131441;28;20034;-65
2022/09/21 07:01:37;;;;;;;15.05;8.23;;;;;;;10.61;71.15;101638.88;4132531;28;20038;-64
2022/09/21 07:03:42;;;;;;;12.50;7.63;;;;;;;10.67;71.12;101639.09;4132092;28;20504;-64
2022/09/21 07:05:45;;;;;;;9.13;6.78;;;;;;;10.59;70.98;101630.16;4132804;28;20053;-64
2022/09/21 07:07:48;;;;;;;11.65;8.07;;;;;;;10.61;71.58;101641.50;4130265;28;20054;-64
2022/09/21 07:09:57;;;;;;;11.85;8.25;;;;;;;10.74;71.07;101629.78;4125233;28;20077;-65
2022/09/21 07:12:10;;;;;;;16.25;8.57;;;;;;;10.76;71.21;101628.09;4132405;28;20046;-65
2022/09/21 07:14:14;;;;;;;19.27;9.65;;;;;;;10.84;70.59;101621.44;4131926;28;20078;-65
2022/09/21 07:16:18;;;;;;;9.43;6.55;;;;;;;10.83;70.41;101630.97;4131511;28;20049;-64
2022/09/21 07:18:21;;;;;;;11.90;6.30;;;;;;;10.77;70.69;101625.53;4131503;28;20129;-64
2022/09/21 07:20:24;;;;;;;11.63;7.00;;;;;;;10.80;70.97;101641.25;4114767;28;20039;-64
2022/09/21 07:22:28;;;;;;;14.07;8.18;;;;;;;10.87;70.59;101636.25;4129946;28;20112;-64
2022/09/21 07:24:31;;;;;;;11.40;6.45;;;;;;;10.93;71.29;101631.25;4130023;28;20042;-64
2022/09/21 07:26:36;;;;;;;14.68;7.57;;;;;;;11.00;71.15;101634.06;4132041;28;20504;-64
2022/09/21 07:28:40;;;;;;;12.30;6.97;;;;;;;11.02;70.46;101636.72;4131021;28;20146;-64
2022/09/21 07:30:43;;;;;;;10.15;7.00;;;;;;;11.12;69.42;101633.56;4132188;28;20049;-64
2022/09/21 07:32:46;;;;;;;16.50;7.07;;;;;;;11.14;69.67;101642.34;4129351;28;20050;-64
2022/09/21 07:34:49;;;;;;;16.88;7.43;;;;;;;11.28;68.81;101634.94;4123795;28;20408;-65
2022/09/21 07:36:52;;;;;;;13.68;7.53;;;;;;;11.35;68.12;101630.81;4130546;28;20432;-64
2022/09/21 07:38:55;;;;;;;9.90;5.78;;;;;;;11.28;68.67;101641.88;4131982;28;20039;-64
2022/09/21 07:41:01;;;;;;;11.63;6.65;;;;;;;11.28;69.38;101640.13;4131992;28;20522;-64
2022/09/21 07:43:04;;;;;;;11.38;6.70;;;;;;;11.32;68.73;101643.72;4130894;28;20081;-64
2022/09/21 07:45:10;;;;;;;10.70;6.25;;;;;;;11.38;69.38;101636.09;4130362;28;20047;-64
2022/09/21 07:47:13;;;;;;;11.57;7.25;;;;;;;11.56;68.11;101640.09;4131832;28;20112;-64
2022/09/21 07:49:16;;;;;;;10.30;6.32;;;;;;;11.52;68.29;101640.00;4131887;28;20057;-64
2022/09/21 07:51:19;;;;;;;11.20;5.97;;;;;;;11.50;68.76;101632.97;4130757;28;20038;-64
2022/09/21 07:53:22;;;;;;;8.45;6.05;;;;;;;11.48;68.77;101635.53;4129223;28;20046;-64
2022/09/21 07:55:25;;;;;;;11.02;6.18;;;;;;;11.49;69.42;101639.91;4131683;28;20068;-64
2022/09/21 07:59:48;;;;;;;9.10;5.38;;;;;;;11.67;67.63;101636.06;4131768;28;20117;-65
2022/09/21 08:01:52;;;;;;;9.00;6.63;;;;;;;11.65;67.96;101633.44;4130800;28;20459;-65
2022/09/21 08:03:57;;;;;;;10.18;7.18;;;;;;;11.85;67.03;101628.75;4129856;28;20533;-65
2022/09/21 08:05:59;;;;;;;8.88;6.38;;;;;;;11.84;66.53;101631.31;4131701;28;20114;-65
2022/09/21 08:08:02;;;;;;;11.15;6.80;;;;;;;11.78;67.33;101632.03;4130675;28;20484;-64
2022/09/21 08:10:06;;;;;;;10.05;5.97;;;;;;;11.77;67.51;101630.28;4131617;28;20034;-64
2022/09/21 08:12:09;;;;;;;10.10;6.05;;;;;;;11.82;67.29;101628.66;4130681;28;20042;-65
2022/09/21 08:14:18;;;;;;;14.80;7.97;;;;;;;11.99;66.73;101638.72;4131097;28;20562;-64
2022/09/21 08:16:29;;;;;;;12.68;5.95;;;;;;;11.97;66.57;101632.56;4130592;28;20599;-64
2022/09/21 08:18:37;;;;;;;13.45;5.82;;;;;;;11.98;66.92;101632.63;4131623;28;20042;-64
2022/09/21 08:20:40;;;;;;;10.27;6.82;;;;;;;12.13;66.35;101634.75;4130276;28;20053;-64
2022/09/21 08:22:43;;;;;;;10.80;6.20;;;;;;;12.16;65.78;101633.97;4130669;28;20092;-65
2022/09/21 08:24:46;;;;;;;8.88;6.93;;;;;;;12.28;64.98;101630.78;4131047;28;20194;-65
2022/09/21 08:26:51;;;;;;;12.40;6.88;;;;;;;12.36;64.73;101635.34;4129294;28;20042;-64
2022/09/21 08:28:57;;;;;;;10.73;6.50;;;;;;;12.38;64.69;101638.00;4129272;28;20038;-64
2022/09/21 08:31:01;;;;;;;22.27;5.95;;;;;;;12.38;65.09;101640.59;4131412;28;20046;-64
2022/09/21 08:33:05;;;;;;;11.82;5.45;;;;;;;12.35;65.47;101633.63;4130338;28;20042;-64
2022/09/21 08:35:10;;;;;;;10.55;7.75;;;;;;;12.52;64.92;101633.16;4130880;28;20061;-65
2022/09/21 08:37:12;;;;;;;9.80;6.00;;;;;;;12.64;63.70;101638.66;4131243;28;20428;-65
2022/09/21 08:39:15;;;;;;;11.85;5.88;;;;;;;12.52;64.27;101634.03;4131435;28;20043;-64
2022/09/21 08:41:20;;;;;;;12.48;7.20;;;;;;;12.71;63.60;101629.28;4130585;28;20089;-64
2022/09/21 08:43:32;;;;;;;9.68;5.80;;;;;;;12.69;64.33;101638.81;4129726;28;20062;-64
2022/09/21 08:45:41;;;;;;;14.32;7.78;;;;;;;12.77;64.50;101634.63;4130059;28;20042;-64
2022/09/21 08:47:48;;;;;;;12.82;6.82;;;;;;;12.85;63.50;101638.31;4131440;28;20046;-64
2022/09/21 08:49:54;;;;;;;15.70;6.55;;;;;;;12.94;62.45;101635.03;4131394;28;20038;-65
2022/09/21 08:52:02;;;;;;;8.15;4.95;;;;;;;12.93;62.80;101631.53;4130464;28;20089;-65
2022/09/21 08:54:13;;;;;;;16.60;8.35;;;;;;;13.05;62.88;101632.66;4128907;28;20073;-65
2022/09/21 08:56:16;;;;;;;11.45;7.43;;;;;;;13.12;63.01;101631.09;4129299;28;20101;-64
2022/09/21 08:58:24;;;;;;;14.13;7.80;;;;;;;13.21;62.30;101628.69;4131166;28;20563;-65
2022/09/21 09:00:33;;;;;;;17.73;9.55;;;;;;;13.21;62.83;101618.22;4131312;28;20408;-65
2022/09/21 09:03:04;;;;;;;14.60;7.85;;;;;;;13.21;62.68;101619.09;4130437;28;20035;-65
2022/09/21 09:05:26;;;;;;;8.43;6.20;;;;;;;13.26;62.68;101619.22;4125674;28;20493;-64
2022/09/21 09:07:58;;;;;;;13.35;7.50;;;;;;;13.41;62.93;101618.69;4113972;28;20046;-65
2022/09/21 09:10:18;;;;;;;12.82;7.72;;;;;;;13.57;61.65;101615.56;4132002;28;20492;-65
2022/09/21 09:12:37;;;;;;;10.18;6.10;;;;;;;13.51;61.65;101623.28;4130390;28;20126;-65
2022/09/21 09:14:53;;;;;;;9.55;6.18;;;;;;;13.67;60.32;101618.34;4132386;28;20069;-64
2022/09/21 09:17:12;;;;;;;9.85;5.18;;;;;;;13.54;61.35;101617.22;4134270;28;20039;-65
2022/09/21 09:19:24;;;;;;;10.50;5.30;;;;;;;13.60;61.91;101615.59;4132108;28;20042;-64
2022/09/21 09:21:33;;;;;;;9.50;4.43;;;;;;;13.72;61.93;101611.47;4132862;28;20089;-64
2022/09/21 09:23:41;;;;;;;9.10;4.80;;;;;;;13.83;60.95;101609.06;4132760;28;20122;-65
2022/09/21 09:25:49;;;;;;;7.93;4.32;;;;;;;13.99;59.56;101615.47;4132086;28;20101;-64
2022/09/21 09:27:55;;;;;;;8.63;4.70;;;;;;;14.09;58.18;101609.56;4116772;28;20528;-65
2022/09/21 09:30:02;;;;;;;7.78;4.65;;;;;;;14.22;56.67;101618.50;4117767;28;20057;-65
2022/09/21 09:32:12;;;;;;;9.70;5.10;;;;;;;14.25;56.57;101613.34;4119090;28;20149;-64
2022/09/21 09:34:21;;;;;;;5.47;3.13;;;;;;;14.11;58.00;101600.91;4132676;28;20546;-65
2022/09/21 09:36:27;;;;;;;8.70;4.30;;;;;;;14.12;58.79;101607.03;4132804;28;20121;-64
2022/09/21 09:38:56;;;;;;;9.52;5.35;;;;;;;14.29;58.12;101605.59;4133885;28;20484;-65
2022/09/21 09:41:18;;;;;;;6.63;3.78;;;;;;;14.33;57.59;101603.91;4133856;28;20039;-65
2022/09/21 09:43:34;;;;;;;6.18;4.07;;;;;;;14.42;57.63;101604.03;4132434;28;20039;-65
2022/09/21 09:45:47;;;;;;;7.93;4.07;;;;;;;14.57;57.56;101595.59;4132434;28;20069;-65
2022/09/21 09:48:06;;;;;;;5.97;4.07;;;;;;;14.60;57.65;101587.78;4133678;28;20038;-65
2022/09/21 09:50:13;;;;;;;7.20;3.33;;;;;;;14.74;57.85;101598.47;4133639;28;20515;-65